sensor_id;sensor_type;location;lat;lon;timestamp;P1;durP1;ratioP1;P2;durP2;ratioP2
20230;SDS011;10274;49.022;9.338;2023-07-29T00:01:01;2.33;;;2.07;;
20230;SDS011;10274;49.022;9.338;2023-07-29T00:03:28;2.57;;;2.20;;
20230;SDS011;10274;49.022;9.338;2023-07-29T00:05:57;1.97;;;1.87;;
20230;SDS011;10274;49.022;9.338;2023-07-29T00:08:23;2.33;;;1.97;;
20230;SDS011;10274;49.022;9.338;2023-07-29T00:10:50;3.40;;;2.23;;
20230;SDS011;10274;49.022;9.338;2023-07-29T00:13:17;2.97;;;2.17;;
20230;SDS011;10274;49.022;9.338;2023-07-29T00:15:45;3.37;;;2.17;;
20230;SDS011;10274;49.022;9.338;2023-07-29T00:18:12;3.53;;;2.30;;
20230;SDS011;10274;49.022;9.338;2023-07-29T00:20:38;4.77;;;2.30;;
20230;SDS011;10274;49.022;9.338;2023-07-29T00:23:05;2.40;;;2.20;;
20230;SDS011;10274;49.022;9.338;2023-07-29T00:25:32;2.43;;;1.60;;
20230;SDS011;10274;49.022;9.338;2023-07-29T00:27:58;2.00;;;1.80;;
20230;SDS011;10274;49.022;9.338;2023-07-29T00:30:25;1.90;;;1.70;;
20230;SDS011;10274;49.022;9.338;2023-07-29T00:32:53;1.97;;;1.60;;
20230;SDS011;10274;49.022;9.338;2023-07-29T00:35:20;2.23;;;2.00;;
20230;SDS011;10274;49.022;9.338;2023-07-29T00:37:47;2.80;;;1.77;;
20230;SDS011;10274;49.022;9.338;2023-07-29T00:40:14;1.77;;;1.60;;
20230;SDS011;10274;49.022;9.338;2023-07-29T00:42:45;1.60;;;1.50;;
20230;SDS011;10274;49.022;9.338;2023-07-29T00:45:12;2.30;;;1.60;;
20230;SDS011;10274;49.022;9.338;2023-07-29T00:47:39;2.03;;;1.50;;
20230;SDS011;10274;49.022;9.338;2023-07-29T00:50:09;2.23;;;1.47;;
20230;SDS011;10274;49.022;9.338;2023-07-29T00:52:37;3.17;;;1.77;;
20230;SDS011;10274;49.022;9.338;2023-07-29T00:55:04;2.27;;;1.83;;
20230;SDS011;10274;49.022;9.338;2023-07-29T00:57:32;3.37;;;1.73;;
20230;SDS011;10274;49.022;9.338;2023-07-29T00:59:59;1.60;;;1.50;;
20230;SDS011;10274;49.022;9.338;2023-07-29T01:02:27;1.60;;;1.50;;
20230;SDS011;10274;49.022;9.338;2023-07-29T01:04:55;2.00;;;1.33;;
20230;SDS011;10274;49.022;9.338;2023-07-29T01:07:26;1.63;;;1.40;;
20230;SDS011;10274;49.022;9.338;2023-07-29T01:10:00;1.37;;;1.20;;
20230;SDS011;10274;49.022;9.338;2023-07-29T01:12:31;3.50;;;1.70;;
20230;SDS011;10274;49.022;9.338;2023-07-29T01:15:10;1.93;;;1.70;;
20230;SDS011;10274;49.022;9.338;2023-07-29T01:17:42;2.33;;;1.37;;
20230;SDS011;10274;49.022;9.338;2023-07-29T01:20:14;1.50;;;1.40;;
20230;SDS011;10274;49.022;9.338;2023-07-29T01:22:43;1.63;;;1.53;;
20230;SDS011;10274;49.022;9.338;2023-07-29T01:25:11;1.97;;;1.57;;
20230;SDS011;10274;49.022;9.338;2023-07-29T01:27:38;1.43;;;1.33;;
20230;SDS011;10274;49.022;9.338;2023-07-29T01:30:07;1.67;;;1.50;;
20230;SDS011;10274;49.022;9.338;2023-07-29T01:32:36;1.63;;;1.30;;
20230;SDS011;10274;49.022;9.338;2023-07-29T01:35:15;1.50;;;1.20;;
20230;SDS011;10274;49.022;9.338;2023-07-29T01:37:48;1.97;;;1.33;;
20230;SDS011;10274;49.022;9.338;2023-07-29T01:40:19;3.77;;;1.40;;
20230;SDS011;10274;49.022;9.338;2023-07-29T01:42:49;3.00;;;1.50;;
20230;SDS011;10274;49.022;9.338;2023-07-29T01:45:16;1.70;;;1.50;;
20230;SDS011;10274;49.022;9.338;2023-07-29T01:47:43;2.97;;;1.60;;
20230;SDS011;10274;49.022;9.338;2023-07-29T01:50:10;1.33;;;1.20;;
20230;SDS011;10274;49.022;9.338;2023-07-29T01:52:37;2.10;;;1.10;;
20230;SDS011;10274;49.022;9.338;2023-07-29T01:55:04;2.70;;;1.30;;
20230;SDS011;10274;49.022;9.338;2023-07-29T01:57:32;1.93;;;1.37;;
20230;SDS011;10274;49.022;9.338;2023-07-29T01:59:59;3.93;;;1.20;;
20230;SDS011;10274;49.022;9.338;2023-07-29T02:02:26;1.40;;;1.30;;
20230;SDS011;10274;49.022;9.338;2023-07-29T02:04:53;2.20;;;1.60;;
20230;SDS011;10274;49.022;9.338;2023-07-29T02:07:20;3.33;;;1.40;;
20230;SDS011;10274;49.022;9.338;2023-07-29T02:09:47;2.50;;;1.40;;
20230;SDS011;10274;49.022;9.338;2023-07-29T02:12:14;1.30;;;1.20;;
20230;SDS011;10274;49.022;9.338;2023-07-29T02:14:42;3.33;;;1.27;;
20230;SDS011;10274;49.022;9.338;2023-07-29T02:17:09;1.33;;;1.23;;
20230;SDS011;10274;49.022;9.338;2023-07-29T02:19:35;1.50;;;1.40;;
20230;SDS011;10274;49.022;9.338;2023-07-29T02:22:02;1.83;;;1.30;;
20230;SDS011;10274;49.022;9.338;2023-07-29T02:24:29;1.83;;;1.13;;
20230;SDS011;10274;49.022;9.338;2023-07-29T02:26:56;1.50;;;1.40;;
20230;SDS011;10274;49.022;9.338;2023-07-29T02:29:23;1.53;;;1.40;;
20230;SDS011;10274;49.022;9.338;2023-07-29T02:31:51;1.90;;;1.33;;
20230;SDS011;10274;49.022;9.338;2023-07-29T02:34:18;1.60;;;1.20;;
20230;SDS011;10274;49.022;9.338;2023-07-29T02:36:45;2.90;;;1.40;;
20230;SDS011;10274;49.022;9.338;2023-07-29T02:39:12;1.40;;;1.10;;
20230;SDS011;10274;49.022;9.338;2023-07-29T02:41:38;2.47;;;1.17;;
20230;SDS011;10274;49.022;9.338;2023-07-29T02:44:05;1.97;;;1.30;;
20230;SDS011;10274;49.022;9.338;2023-07-29T02:46:32;1.50;;;1.20;;
20230;SDS011;10274;49.022;9.338;2023-07-29T02:49:01;1.20;;;1.10;;
20230;SDS011;10274;49.022;9.338;2023-07-29T02:51:28;1.87;;;1.30;;
20230;SDS011;10274;49.022;9.338;2023-07-29T02:53:55;1.70;;;1.10;;
20230;SDS011;10274;49.022;9.338;2023-07-29T02:56:22;2.17;;;1.10;;
20230;SDS011;10274;49.022;9.338;2023-07-29T02:58:49;0.93;;;0.90;;
20230;SDS011;10274;49.022;9.338;2023-07-29T03:01:16;2.53;;;1.13;;
20230;SDS011;10274;49.022;9.338;2023-07-29T03:03:43;1.60;;;1.00;;
20230;SDS011;10274;49.022;9.338;2023-07-29T03:06:12;1.07;;;1.00;;
20230;SDS011;10274;49.022;9.338;2023-07-29T03:08:40;2.30;;;1.33;;
20230;SDS011;10274;49.022;9.338;2023-07-29T03:11:07;1.10;;;1.00;;
20230;SDS011;10274;49.022;9.338;2023-07-29T03:13:35;1.20;;;1.00;;
20230;SDS011;10274;49.022;9.338;2023-07-29T03:16:05;1.03;;;1.00;;
20230;SDS011;10274;49.022;9.338;2023-07-29T03:18:32;2.40;;;1.00;;
20230;SDS011;10274;49.022;9.338;2023-07-29T03:20:59;1.20;;;1.03;;
20230;SDS011;10274;49.022;9.338;2023-07-29T03:23:28;2.13;;;1.17;;
20230;SDS011;10274;49.022;9.338;2023-07-29T03:25:56;1.30;;;1.10;;
20230;SDS011;10274;49.022;9.338;2023-07-29T03:28:23;1.53;;;1.00;;
20230;SDS011;10274;49.022;9.338;2023-07-29T03:30:51;1.40;;;1.30;;
20230;SDS011;10274;49.022;9.338;2023-07-29T03:33:17;1.87;;;1.00;;
20230;SDS011;10274;49.022;9.338;2023-07-29T03:35:44;1.20;;;1.10;;
20230;SDS011;10274;49.022;9.338;2023-07-29T03:38:11;1.20;;;1.10;;
20230;SDS011;10274;49.022;9.338;2023-07-29T03:40:39;1.30;;;1.20;;
20230;SDS011;10274;49.022;9.338;2023-07-29T03:43:06;1.57;;;1.10;;
20230;SDS011;10274;49.022;9.338;2023-07-29T03:45:34;0.80;;;0.80;;
20230;SDS011;10274;49.022;9.338;2023-07-29T03:48:01;2.80;;;0.87;;
20230;SDS011;10274;49.022;9.338;2023-07-29T03:50:29;1.40;;;1.30;;
20230;SDS011;10274;49.022;9.338;2023-07-29T03:52:56;2.20;;;1.20;;
20230;SDS011;10274;49.022;9.338;2023-07-29T03:55:22;0.90;;;0.80;;
20230;SDS011;10274;49.022;9.338;2023-07-29T03:57:51;0.97;;;0.93;;
20230;SDS011;10274;49.022;9.338;2023-07-29T04:00:17;2.23;;;1.13;;
20230;SDS011;10274;49.022;9.338;2023-07-29T04:02:44;1.40;;;1.10;;
20230;SDS011;10274;49.022;9.338;2023-07-29T04:05:11;1.47;;;1.17;;
20230;SDS011;10274;49.022;9.338;2023-07-29T04:07:38;1.40;;;1.30;;
20230;SDS011;10274;49.022;9.338;2023-07-29T04:10:05;2.43;;;1.00;;
20230;SDS011;10274;49.022;9.338;2023-07-29T04:12:33;1.10;;;1.00;;
20230;SDS011;10274;49.022;9.338;2023-07-29T04:15:01;2.50;;;1.00;;
20230;SDS011;10274;49.022;9.338;2023-07-29T04:17:28;1.60;;;1.10;;
20230;SDS011;10274;49.022;9.338;2023-07-29T04:19:55;1.63;;;1.33;;
20230;SDS011;10274;49.022;9.338;2023-07-29T04:22:22;4.10;;;1.47;;
20230;SDS011;10274;49.022;9.338;2023-07-29T04:24:48;1.70;;;1.60;;
20230;SDS011;10274;49.022;9.338;2023-07-29T04:27:15;1.50;;;1.10;;
20230;SDS011;10274;49.022;9.338;2023-07-29T04:29:42;1.20;;;1.10;;
20230;SDS011;10274;49.022;9.338;2023-07-29T04:32:10;1.10;;;1.00;;
20230;SDS011;10274;49.022;9.338;2023-07-29T04:34:37;1.33;;;1.10;;
20230;SDS011;10274;49.022;9.338;2023-07-29T04:37:04;1.20;;;1.10;;
20230;SDS011;10274;49.022;9.338;2023-07-29T04:39:31;1.53;;;1.20;;
20230;SDS011;10274;49.022;9.338;2023-07-29T04:41:58;1.77;;;1.30;;
20230;SDS011;10274;49.022;9.338;2023-07-29T04:44:25;1.13;;;1.03;;
20230;SDS011;10274;49.022;9.338;2023-07-29T04:46:52;1.33;;;1.20;;
20230;SDS011;10274;49.022;9.338;2023-07-29T04:49:20;1.67;;;1.33;;
20230;SDS011;10274;49.022;9.338;2023-07-29T04:51:47;1.37;;;1.27;;
20230;SDS011;10274;49.022;9.338;2023-07-29T04:54:14;2.33;;;1.47;;
20230;SDS011;10274;49.022;9.338;2023-07-29T04:56:40;1.70;;;1.37;;
20230;SDS011;10274;49.022;9.338;2023-07-29T04:59:07;2.40;;;1.20;;
20230;SDS011;10274;49.022;9.338;2023-07-29T05:01:34;3.13;;;1.37;;
20230;SDS011;10274;49.022;9.338;2023-07-29T05:04:01;2.17;;;1.47;;
20230;SDS011;10274;49.022;9.338;2023-07-29T05:06:29;3.50;;;1.40;;
20230;SDS011;10274;49.022;9.338;2023-07-29T05:08:56;2.80;;;1.80;;
20230;SDS011;10274;49.022;9.338;2023-07-29T05:11:24;1.90;;;1.33;;
20230;SDS011;10274;49.022;9.338;2023-07-29T05:13:50;1.30;;;1.20;;
20230;SDS011;10274;49.022;9.338;2023-07-29T05:16:17;2.37;;;1.60;;
20230;SDS011;10274;49.022;9.338;2023-07-29T05:18:44;1.50;;;1.40;;
20230;SDS011;10274;49.022;9.338;2023-07-29T05:21:11;2.33;;;1.40;;
20230;SDS011;10274;49.022;9.338;2023-07-29T05:23:40;1.37;;;1.27;;
20230;SDS011;10274;49.022;9.338;2023-07-29T05:26:07;1.53;;;1.40;;
20230;SDS011;10274;49.022;9.338;2023-07-29T05:28:34;1.47;;;1.37;;
20230;SDS011;10274;49.022;9.338;2023-07-29T05:31:00;1.93;;;1.43;;
20230;SDS011;10274;49.022;9.338;2023-07-29T05:33:27;2.13;;;1.60;;
20230;SDS011;10274;49.022;9.338;2023-07-29T05:35:54;4.17;;;1.93;;
20230;SDS011;10274;49.022;9.338;2023-07-29T05:38:21;1.83;;;1.67;;
20230;SDS011;10274;49.022;9.338;2023-07-29T05:40:49;2.60;;;1.70;;
20230;SDS011;10274;49.022;9.338;2023-07-29T05:43:16;2.60;;;1.60;;
20230;SDS011;10274;49.022;9.338;2023-07-29T05:45:42;2.97;;;1.60;;
20230;SDS011;10274;49.022;9.338;2023-07-29T05:48:09;2.50;;;1.50;;
20230;SDS011;10274;49.022;9.338;2023-07-29T05:50:36;3.70;;;1.67;;
20230;SDS011;10274;49.022;9.338;2023-07-29T05:53:02;1.70;;;1.60;;
20230;SDS011;10274;49.022;9.338;2023-07-29T05:55:29;2.00;;;1.67;;
20230;SDS011;10274;49.022;9.338;2023-07-29T05:57:57;2.53;;;2.10;;
20230;SDS011;10274;49.022;9.338;2023-07-29T06:00:24;1.60;;;1.50;;
20230;SDS011;10274;49.022;9.338;2023-07-29T06:02:50;1.57;;;1.47;;
20230;SDS011;10274;49.022;9.338;2023-07-29T06:05:17;1.67;;;1.50;;
20230;SDS011;10274;49.022;9.338;2023-07-29T06:07:44;1.70;;;1.43;;
20230;SDS011;10274;49.022;9.338;2023-07-29T06:10:12;1.63;;;1.53;;
20230;SDS011;10274;49.022;9.338;2023-07-29T06:12:42;2.23;;;1.73;;
20230;SDS011;10274;49.022;9.338;2023-07-29T06:15:10;1.73;;;1.50;;
20230;SDS011;10274;49.022;9.338;2023-07-29T06:17:38;2.33;;;1.80;;
20230;SDS011;10274;49.022;9.338;2023-07-29T06:20:05;2.10;;;1.90;;
20230;SDS011;10274;49.022;9.338;2023-07-29T06:22:32;2.23;;;1.60;;
20230;SDS011;10274;49.022;9.338;2023-07-29T06:24:59;2.63;;;1.60;;
20230;SDS011;10274;49.022;9.338;2023-07-29T06:27:25;2.00;;;1.50;;
20230;SDS011;10274;49.022;9.338;2023-07-29T06:29:52;2.00;;;1.50;;
20230;SDS011;10274;49.022;9.338;2023-07-29T06:32:20;2.53;;;1.97;;
20230;SDS011;10274;49.022;9.338;2023-07-29T06:34:47;1.50;;;1.40;;
20230;SDS011;10274;49.022;9.338;2023-07-29T06:37:14;1.87;;;1.50;;
20230;SDS011;10274;49.022;9.338;2023-07-29T06:39:40;2.03;;;1.50;;
20230;SDS011;10274;49.022;9.338;2023-07-29T06:42:07;1.50;;;1.40;;
20230;SDS011;10274;49.022;9.338;2023-07-29T06:44:34;1.83;;;1.50;;
20230;SDS011;10274;49.022;9.338;2023-07-29T06:47:01;2.30;;;1.83;;
20230;SDS011;10274;49.022;9.338;2023-07-29T06:49:29;1.63;;;1.50;;
20230;SDS011;10274;49.022;9.338;2023-07-29T06:51:55;3.10;;;1.50;;
20230;SDS011;10274;49.022;9.338;2023-07-29T06:54:23;1.73;;;1.40;;
20230;SDS011;10274;49.022;9.338;2023-07-29T06:56:51;2.23;;;1.33;;
20230;SDS011;10274;49.022;9.338;2023-07-29T06:59:17;3.00;;;1.30;;
20230;SDS011;10274;49.022;9.338;2023-07-29T07:01:44;3.10;;;1.37;;
20230;SDS011;10274;49.022;9.338;2023-07-29T07:04:11;1.87;;;1.60;;
20230;SDS011;10274;49.022;9.338;2023-07-29T07:06:39;2.70;;;1.77;;
20230;SDS011;10274;49.022;9.338;2023-07-29T07:09:06;1.50;;;1.40;;
20230;SDS011;10274;49.022;9.338;2023-07-29T07:11:33;1.60;;;1.50;;
20230;SDS011;10274;49.022;9.338;2023-07-29T07:13:59;1.67;;;1.57;;
20230;SDS011;10274;49.022;9.338;2023-07-29T07:16:26;1.60;;;1.50;;
20230;SDS011;10274;49.022;9.338;2023-07-29T07:18:55;2.73;;;1.50;;
20230;SDS011;10274;49.022;9.338;2023-07-29T07:21:22;2.57;;;1.33;;
20230;SDS011;10274;49.022;9.338;2023-07-29T07:23:51;2.10;;;1.57;;
20230;SDS011;10274;49.022;9.338;2023-07-29T07:26:17;2.83;;;1.70;;
20230;SDS011;10274;49.022;9.338;2023-07-29T07:28:44;3.57;;;1.63;;
20230;SDS011;10274;49.022;9.338;2023-07-29T07:31:11;2.03;;;1.53;;
20230;SDS011;10274;49.022;9.338;2023-07-29T07:33:37;1.67;;;1.50;;
20230;SDS011;10274;49.022;9.338;2023-07-29T07:36:04;1.60;;;1.50;;
20230;SDS011;10274;49.022;9.338;2023-07-29T07:38:31;3.03;;;1.80;;
20230;SDS011;10274;49.022;9.338;2023-07-29T07:40:59;1.60;;;1.50;;
20230;SDS011;10274;49.022;9.338;2023-07-29T07:43:26;2.00;;;1.80;;
20230;SDS011;10274;49.022;9.338;2023-07-29T07:45:57;1.53;;;1.43;;
20230;SDS011;10274;49.022;9.338;2023-07-29T07:48:24;3.13;;;1.70;;
20230;SDS011;10274;49.022;9.338;2023-07-29T07:50:51;1.50;;;1.40;;
20230;SDS011;10274;49.022;9.338;2023-07-29T07:53:18;2.50;;;1.60;;
20230;SDS011;10274;49.022;9.338;2023-07-29T07:55:45;1.90;;;1.60;;
20230;SDS011;10274;49.022;9.338;2023-07-29T07:58:13;1.47;;;1.37;;
20230;SDS011;10274;49.022;9.338;2023-07-29T08:00:40;2.63;;;2.00;;
20230;SDS011;10274;49.022;9.338;2023-07-29T08:03:06;2.90;;;1.87;;
20230;SDS011;10274;49.022;9.338;2023-07-29T08:05:33;3.50;;;1.70;;
20230;SDS011;10274;49.022;9.338;2023-07-29T08:08:00;2.17;;;1.57;;
20230;SDS011;10274;49.022;9.338;2023-07-29T08:10:26;2.20;;;1.87;;
20230;SDS011;10274;49.022;9.338;2023-07-29T08:12:53;4.30;;;1.90;;
20230;SDS011;10274;49.022;9.338;2023-07-29T08:15:21;1.70;;;1.60;;
20230;SDS011;10274;49.022;9.338;2023-07-29T08:17:48;3.13;;;1.80;;
20230;SDS011;10274;49.022;9.338;2023-07-29T08:20:14;3.70;;;1.80;;
20230;SDS011;10274;49.022;9.338;2023-07-29T08:22:41;3.10;;;1.87;;
20230;SDS011;10274;49.022;9.338;2023-07-29T08:25:08;3.10;;;1.67;;
20230;SDS011;10274;49.022;9.338;2023-07-29T08:27:35;2.17;;;1.47;;
20230;SDS011;10274;49.022;9.338;2023-07-29T08:30:01;3.07;;;2.00;;
20230;SDS011;10274;49.022;9.338;2023-07-29T08:32:30;1.93;;;1.77;;
20230;SDS011;10274;49.022;9.338;2023-07-29T08:34:56;1.60;;;1.50;;
20230;SDS011;10274;49.022;9.338;2023-07-29T08:37:23;2.70;;;1.70;;
20230;SDS011;10274;49.022;9.338;2023-07-29T08:39:50;1.60;;;1.50;;
20230;SDS011;10274;49.022;9.338;2023-07-29T08:42:18;2.13;;;1.90;;
20230;SDS011;10274;49.022;9.338;2023-07-29T08:44:45;2.50;;;1.90;;
20230;SDS011;10274;49.022;9.338;2023-07-29T08:47:15;1.90;;;1.70;;
20230;SDS011;10274;49.022;9.338;2023-07-29T08:49:44;2.43;;;1.90;;
20230;SDS011;10274;49.022;9.338;2023-07-29T08:52:11;1.83;;;1.70;;
20230;SDS011;10274;49.022;9.338;2023-07-29T08:54:40;2.07;;;1.63;;
20230;SDS011;10274;49.022;9.338;2023-07-29T08:57:06;2.30;;;1.63;;
20230;SDS011;10274;49.022;9.338;2023-07-29T08:59:33;2.47;;;1.90;;
20230;SDS011;10274;49.022;9.338;2023-07-29T09:02:00;1.90;;;1.70;;
20230;SDS011;10274;49.022;9.338;2023-07-29T09:04:27;1.63;;;1.53;;
20230;SDS011;10274;49.022;9.338;2023-07-29T09:06:55;1.50;;;1.40;;
20230;SDS011;10274;49.022;9.338;2023-07-29T09:09:22;3.90;;;1.60;;
20230;SDS011;10274;49.022;9.338;2023-07-29T09:11:49;1.60;;;1.20;;
20230;SDS011;10274;49.022;9.338;2023-07-29T09:14:16;1.93;;;1.40;;
20230;SDS011;10274;49.022;9.338;2023-07-29T09:16:43;1.67;;;1.50;;
20230;SDS011;10274;49.022;9.338;2023-07-29T09:19:10;1.50;;;1.40;;
20230;SDS011;10274;49.022;9.338;2023-07-29T09:21:38;1.80;;;1.40;;
20230;SDS011;10274;49.022;9.338;2023-07-29T09:24:07;1.50;;;1.40;;
20230;SDS011;10274;49.022;9.338;2023-07-29T09:26:35;1.53;;;1.37;;
20230;SDS011;10274;49.022;9.338;2023-07-29T09:29:02;1.27;;;1.17;;
20230;SDS011;10274;49.022;9.338;2023-07-29T09:31:29;3.10;;;1.30;;
20230;SDS011;10274;49.022;9.338;2023-07-29T09:33:57;1.67;;;1.43;;
20230;SDS011;10274;49.022;9.338;2023-07-29T09:36:24;4.40;;;1.37;;
20230;SDS011;10274;49.022;9.338;2023-07-29T09:38:54;1.23;;;1.13;;
20230;SDS011;10274;49.022;9.338;2023-07-29T09:41:23;2.03;;;1.13;;
20230;SDS011;10274;49.022;9.338;2023-07-29T09:43:55;2.20;;;1.43;;
20230;SDS011;10274;49.022;9.338;2023-07-29T09:46:23;1.40;;;1.17;;
20230;SDS011;10274;49.022;9.338;2023-07-29T09:48:52;1.70;;;1.30;;
20230;SDS011;10274;49.022;9.338;2023-07-29T09:51:20;1.20;;;1.10;;
20230;SDS011;10274;49.022;9.338;2023-07-29T09:53:49;2.10;;;1.57;;
20230;SDS011;10274;49.022;9.338;2023-07-29T09:56:16;1.63;;;1.47;;
20230;SDS011;10274;49.022;9.338;2023-07-29T09:58:45;1.57;;;1.47;;
20230;SDS011;10274;49.022;9.338;2023-07-29T10:01:12;1.27;;;1.17;;
20230;SDS011;10274;49.022;9.338;2023-07-29T10:03:39;1.97;;;1.17;;
20230;SDS011;10274;49.022;9.338;2023-07-29T10:06:06;1.57;;;1.20;;
20230;SDS011;10274;49.022;9.338;2023-07-29T10:08:33;1.83;;;1.40;;
20230;SDS011;10274;49.022;9.338;2023-07-29T10:11:03;3.17;;;1.50;;
20230;SDS011;10274;49.022;9.338;2023-07-29T10:13:31;2.37;;;1.40;;
20230;SDS011;10274;49.022;9.338;2023-07-29T10:16:00;2.63;;;1.33;;
20230;SDS011;10274;49.022;9.338;2023-07-29T10:18:28;1.93;;;1.50;;
20230;SDS011;10274;49.022;9.338;2023-07-29T10:20:56;1.93;;;1.60;;
20230;SDS011;10274;49.022;9.338;2023-07-29T10:23:24;1.77;;;1.43;;
20230;SDS011;10274;49.022;9.338;2023-07-29T10:25:55;1.50;;;1.30;;
20230;SDS011;10274;49.022;9.338;2023-07-29T10:28:26;1.53;;;1.40;;
20230;SDS011;10274;49.022;9.338;2023-07-29T10:30:56;1.40;;;1.20;;
20230;SDS011;10274;49.022;9.338;2023-07-29T10:33:24;3.57;;;1.30;;
20230;SDS011;10274;49.022;9.338;2023-07-29T10:35:51;1.37;;;1.23;;
20230;SDS011;10274;49.022;9.338;2023-07-29T10:38:19;2.23;;;1.00;;
20230;SDS011;10274;49.022;9.338;2023-07-29T10:40:50;1.73;;;1.23;;
20230;SDS011;10274;49.022;9.338;2023-07-29T10:43:23;1.60;;;1.30;;
20230;SDS011;10274;49.022;9.338;2023-07-29T10:45:51;1.13;;;1.03;;
20230;SDS011;10274;49.022;9.338;2023-07-29T10:51:24;2.40;;;1.00;;
20230;SDS011;10274;49.022;9.338;2023-07-29T10:53:54;1.30;;;1.10;;
20230;SDS011;10274;49.022;9.338;2023-07-29T10:56:25;1.10;;;1.00;;
20230;SDS011;10274;49.022;9.338;2023-07-29T10:58:54;1.30;;;1.10;;
20230;SDS011;10274;49.022;9.338;2023-07-29T11:01:28;1.20;;;1.10;;
20230;SDS011;10274;49.022;9.338;2023-07-29T11:09:52;1.00;;;0.90;;
20230;SDS011;10274;49.022;9.338;2023-07-29T11:12:37;1.63;;;1.13;;
20230;SDS011;10274;49.022;9.338;2023-07-29T11:15:17;1.20;;;0.93;;
20230;SDS011;10274;49.022;9.338;2023-07-29T11:17:46;1.02;;;0.90;;
20230;SDS011;10274;49.022;9.338;2023-07-29T11:20:15;0.95;;;0.80;;
20230;SDS011;10274;49.022;9.338;2023-07-29T11:22:42;1.55;;;1.02;;
20230;SDS011;10274;49.022;9.338;2023-07-29T11:25:10;1.13;;;0.83;;
20230;SDS011;10274;49.022;9.338;2023-07-29T11:27:38;1.67;;;0.97;;
20230;SDS011;10274;49.022;9.338;2023-07-29T11:30:06;1.00;;;0.90;;
20230;SDS011;10274;49.022;9.338;2023-07-29T11:32:34;1.52;;;1.15;;
20230;SDS011;10274;49.022;9.338;2023-07-29T11:35:02;1.05;;;0.90;;
20230;SDS011;10274;49.022;9.338;2023-07-29T11:37:32;1.10;;;1.00;;
20230;SDS011;10274;49.022;9.338;2023-07-29T11:39:59;1.63;;;1.08;;
20230;SDS011;10274;49.022;9.338;2023-07-29T11:42:26;1.88;;;0.98;;
20230;SDS011;10274;49.022;9.338;2023-07-29T11:44:53;0.93;;;0.82;;
20230;SDS011;10274;49.022;9.338;2023-07-29T11:47:22;1.05;;;0.95;;
20230;SDS011;10274;49.022;9.338;2023-07-29T11:49:48;1.63;;;1.13;;
20230;SDS011;10274;49.022;9.338;2023-07-29T11:52:15;1.13;;;0.75;;
20230;SDS011;10274;49.022;9.338;2023-07-29T11:54:45;1.40;;;0.95;;
20230;SDS011;10274;49.022;9.338;2023-07-29T11:57:14;1.40;;;0.95;;
20230;SDS011;10274;49.022;9.338;2023-07-29T11:59:41;0.80;;;0.80;;
20230;SDS011;10274;49.022;9.338;2023-07-29T12:02:09;2.72;;;0.80;;
20230;SDS011;10274;49.022;9.338;2023-07-29T12:04:38;0.80;;;0.80;;
20230;SDS011;10274;49.022;9.338;2023-07-29T12:07:07;1.08;;;0.98;;
20230;SDS011;10274;49.022;9.338;2023-07-29T12:09:34;1.08;;;0.98;;
20230;SDS011;10274;49.022;9.338;2023-07-29T12:12:03;1.98;;;1.20;;
20230;SDS011;10274;49.022;9.338;2023-07-29T12:14:31;0.75;;;0.75;;
20230;SDS011;10274;49.022;9.338;2023-07-29T12:16:59;1.17;;;1.00;;
20230;SDS011;10274;49.022;9.338;2023-07-29T12:19:30;1.30;;;1.17;;
20230;SDS011;10274;49.022;9.338;2023-07-29T12:21:58;2.30;;;0.98;;
20230;SDS011;10274;49.022;9.338;2023-07-29T12:24:25;2.15;;;0.93;;
20230;SDS011;10274;49.022;9.338;2023-07-29T12:26:52;1.20;;;1.10;;
20230;SDS011;10274;49.022;9.338;2023-07-29T12:29:20;2.45;;;0.82;;
20230;SDS011;10274;49.022;9.338;2023-07-29T12:31:47;1.02;;;0.93;;
20230;SDS011;10274;49.022;9.338;2023-07-29T12:34:17;1.30;;;1.00;;
20230;SDS011;10274;49.022;9.338;2023-07-29T12:36:45;1.42;;;1.10;;
20230;SDS011;10274;49.022;9.338;2023-07-29T12:39:16;2.15;;;1.00;;
20230;SDS011;10274;49.022;9.338;2023-07-29T12:41:44;1.80;;;1.30;;
20230;SDS011;10274;49.022;9.338;2023-07-29T12:44:11;1.85;;;1.20;;
20230;SDS011;10274;49.022;9.338;2023-07-29T12:46:39;1.00;;;0.98;;
20230;SDS011;10274;49.022;9.338;2023-07-29T12:49:06;1.20;;;1.10;;
20230;SDS011;10274;49.022;9.338;2023-07-29T12:51:33;1.00;;;0.95;;
20230;SDS011;10274;49.022;9.338;2023-07-29T12:53:59;1.30;;;1.20;;
20230;SDS011;10274;49.022;9.338;2023-07-29T12:56:26;2.40;;;1.20;;
20230;SDS011;10274;49.022;9.338;2023-07-29T12:58:53;2.58;;;1.10;;
20230;SDS011;10274;49.022;9.338;2023-07-29T13:01:20;2.25;;;1.25;;
20230;SDS011;10274;49.022;9.338;2023-07-29T13:03:48;1.25;;;1.15;;
20230;SDS011;10274;49.022;9.338;2023-07-29T13:06:15;1.02;;;1.00;;
20230;SDS011;10274;49.022;9.338;2023-07-29T13:08:42;2.33;;;1.45;;
20230;SDS011;10274;49.022;9.338;2023-07-29T13:11:08;1.30;;;1.20;;
20230;SDS011;10274;49.022;9.338;2023-07-29T13:13:35;1.95;;;1.20;;
20230;SDS011;10274;49.022;9.338;2023-07-29T13:16:02;3.45;;;1.08;;
20230;SDS011;10274;49.022;9.338;2023-07-29T13:18:28;2.90;;;1.85;;
20230;SDS011;10274;49.022;9.338;2023-07-29T13:20:56;2.00;;;1.42;;
20230;SDS011;10274;49.022;9.338;2023-07-29T13:23:24;1.10;;;1.00;;
20230;SDS011;10274;49.022;9.338;2023-07-29T13:25:51;1.23;;;1.13;;
20230;SDS011;10274;49.022;9.338;2023-07-29T13:28:18;1.88;;;1.33;;
20230;SDS011;10274;49.022;9.338;2023-07-29T13:30:45;1.35;;;1.25;;
20230;SDS011;10274;49.022;9.338;2023-07-29T13:33:12;1.30;;;1.20;;
20230;SDS011;10274;49.022;9.338;2023-07-29T13:35:38;2.30;;;1.30;;
20230;SDS011;10274;49.022;9.338;2023-07-29T13:38:06;1.40;;;1.30;;
20230;SDS011;10274;49.022;9.338;2023-07-29T13:40:34;1.38;;;1.27;;
20230;SDS011;10274;49.022;9.338;2023-07-29T13:43:00;2.53;;;1.40;;
20230;SDS011;10274;49.022;9.338;2023-07-29T13:45:27;1.23;;;1.10;;
20230;SDS011;10274;49.022;9.338;2023-07-29T13:47:54;1.48;;;1.38;;
20230;SDS011;10274;49.022;9.338;2023-07-29T13:50:21;1.42;;;1.33;;
20230;SDS011;10274;49.022;9.338;2023-07-29T13:52:47;1.20;;;1.10;;
20230;SDS011;10274;49.022;9.338;2023-07-29T13:55:15;1.42;;;1.33;;
20230;SDS011;10274;49.022;9.338;2023-07-29T13:57:42;1.70;;;1.60;;
20230;SDS011;10274;49.022;9.338;2023-07-29T14:00:09;1.20;;;1.10;;
20230;SDS011;10274;49.022;9.338;2023-07-29T14:02:36;1.30;;;1.17;;
20230;SDS011;10274;49.022;9.338;2023-07-29T14:05:03;1.40;;;1.30;;
20230;SDS011;10274;49.022;9.338;2023-07-29T14:07:30;3.95;;;1.50;;
20230;SDS011;10274;49.022;9.338;2023-07-29T14:09:57;1.38;;;1.27;;
20230;SDS011;10274;49.022;9.338;2023-07-29T14:12:25;2.60;;;1.40;;
20230;SDS011;10274;49.022;9.338;2023-07-29T14:14:51;1.40;;;1.30;;
20230;SDS011;10274;49.022;9.338;2023-07-29T14:17:18;2.50;;;1.40;;
20230;SDS011;10274;49.022;9.338;2023-07-29T14:19:45;1.48;;;1.33;;
20230;SDS011;10274;49.022;9.338;2023-07-29T14:22:11;2.30;;;1.30;;
20230;SDS011;10274;49.022;9.338;2023-07-29T14:24:38;1.45;;;1.35;;
20230;SDS011;10274;49.022;9.338;2023-07-29T14:27:05;1.52;;;1.20;;
20230;SDS011;10274;49.022;9.338;2023-07-29T14:29:33;1.40;;;1.30;;
20230;SDS011;10274;49.022;9.338;2023-07-29T14:32:00;1.85;;;1.33;;
20230;SDS011;10274;49.022;9.338;2023-07-29T14:34:26;1.92;;;1.20;;
20230;SDS011;10274;49.022;9.338;2023-07-29T14:36:54;1.58;;;1.48;;
20230;SDS011;10274;49.022;9.338;2023-07-29T14:39:20;1.85;;;1.52;;
20230;SDS011;10274;49.022;9.338;2023-07-29T14:41:48;1.80;;;1.40;;
20230;SDS011;10274;49.022;9.338;2023-07-29T14:44:14;1.50;;;1.35;;
20230;SDS011;10274;49.022;9.338;2023-07-29T14:49:10;3.63;;;1.40;;
20230;SDS011;10274;49.022;9.338;2023-07-29T14:51:37;1.80;;;1.48;;
20230;SDS011;10274;49.022;9.338;2023-07-29T14:54:04;1.40;;;1.30;;
20230;SDS011;10274;49.022;9.338;2023-07-29T14:56:30;1.55;;;1.45;;
20230;SDS011;10274;49.022;9.338;2023-07-29T14:58:57;1.33;;;1.23;;
20230;SDS011;10274;49.022;9.338;2023-07-29T15:01:24;2.08;;;1.33;;